Time;durP1;ratioP1;P1;durP2;ratioP2;P2;SDS_P1;SDS_P2;PMS_P1;PMS_P2;Temp;Humidity;BMP_temperature;BMP_pressure;BME280_temperature;BME280_humidity;BME280_pressure;Samples;Min_cycle;Max_cycle;Signal;HPM_P1;HPM_P2
2023/05/20 00:01:05;;;;;;;0.80;0.80;;;5.60;99.90;;;;;;5036230;28;20573;-72
2023/05/20 00:03:31;;;;;;;0.73;0.73;;;5.60;99.90;;;;;;5065669;28;20228;-72
2023/05/20 00:05:57;;;;;;;0.70;0.70;;;5.50;99.90;;;;;;5074080;28;20690;-72
2023/05/20 00:08:23;;;;;;;0.70;0.70;;;5.60;99.90;;;;;;5073935;28;20551;-72
2023/05/20 00:10:48;;;;;;;0.70;0.70;;;5.50;99.90;;;;;;5073965;28;20189;-71
2023/05/20 00:13:14;;;;;;;0.70;0.70;;;5.50;99.90;;;;;;5074039;28;20647;-71
2023/05/20 00:15:40;;;;;;;0.70;0.70;;;5.50;99.90;;;;;;5073836;28;21117;-71
2023/05/20 00:18:06;;;;;;;0.70;0.70;;;5.50;99.90;;;;;;5073893;28;20189;-72
2023/05/20 00:20:32;;;;;;;0.70;0.70;;;5.40;99.90;;;;;;5055685;28;20199;-72
2023/05/20 00:22:57;;;;;;;0.70;0.70;;;5.40;99.90;;;;;;5073710;28;20193;-72
2023/05/20 00:25:23;;;;;;;0.70;0.70;;;5.40;99.90;;;;;;5073386;28;20300;-72
2023/05/20 00:27:49;;;;;;;0.80;0.80;;;5.30;99.90;;;;;;5073606;28;20192;-72
2023/05/20 00:30:15;;;;;;;0.73;0.73;;;5.40;99.90;;;;;;5072857;28;20189;-71
2023/05/20 00:32:40;;;;;;;0.90;0.90;;;5.30;99.90;;;;;;5073444;28;20603;-72
2023/05/20 00:35:07;;;;;;;0.95;0.95;;;5.30;99.90;;;;;;5073460;28;20224;-72
2023/05/20 00:37:33;;;;;;;0.80;0.80;;;5.30;99.90;;;;;;5055167;28;20197;-71
2023/05/20 00:39:58;;;;;;;0.80;0.80;;;5.20;99.90;;;;;;5054527;28;20204;-72
2023/05/20 00:42:26;;;;;;;0.77;0.77;;;5.20;99.90;;;;;;5053160;28;20663;-72
2023/05/20 00:44:52;;;;;;;0.70;0.70;;;5.20;99.90;;;;;;5053081;28;20208;-72
2023/05/20 00:47:20;;;;;;;0.90;0.90;;;5.10;99.90;;;;;;5035210;28;20197;-73
2023/05/20 00:49:47;;;;;;;1.20;1.13;;;5.10;99.90;;;;;;5053228;28;20201;-71
2023/05/20 00:52:13;;;;;;;0.70;0.70;;;5.00;99.90;;;;;;5053151;28;20657;-71
2023/05/20 00:54:40;;;;;;;0.80;0.80;;;5.00;99.90;;;;;;5052715;28;20205;-72
2023/05/20 00:57:07;;;;;;;34.17;5.63;;;5.00;99.90;;;;;;5052990;28;20319;-72
2023/05/20 00:59:35;;;;;;;0.70;0.70;;;4.90;99.90;;;;;;5062829;28;20614;-72
2023/05/20 01:02:03;;;;;;;0.70;0.70;;;4.90;99.90;;;;;;5087646;22;20247;-68
2023/05/20 01:04:29;;;;;;;0.70;0.70;;;4.80;99.90;;;;;;5072016;28;20343;-68
2023/05/20 01:06:56;;;;;;;0.80;0.80;;;4.80;99.90;;;;;;5073840;28;20192;-68
2023/05/20 01:09:25;;;;;;;1.35;1.25;;;4.70;99.90;;;;;;5073552;28;20188;-68
2023/05/20 01:12:01;;;;;;;0.80;0.80;;;4.70;99.90;;;;;;5073835;28;20193;-67
2023/05/20 01:14:31;;;;;;;0.73;0.73;;;4.60;99.90;;;;;;5073380;28;20231;-68
2023/05/20 01:17:01;;;;;;;0.80;0.80;;;4.60;99.90;;;;;;5074447;28;20204;-67
2023/05/20 01:19:34;;;;;;;0.80;0.80;;;4.60;99.90;;;;;;5072748;28;20638;-67
2023/05/20 01:22:06;;;;;;;2.15;1.25;;;4.60;99.90;;;;;;5073213;28;20298;-68
2023/05/20 01:24:32;;;;;;;0.85;0.85;;;4.60;99.90;;;;;;5072823;28;20421;-69
2023/05/20 01:26:58;;;;;;;0.70;0.70;;;4.50;99.90;;;;;;5073100;28;20189;-70
2023/05/20 01:29:26;;;;;;;0.80;0.80;;;4.60;99.90;;;;;;5073222;28;20185;-68
2023/05/20 01:31:55;;;;;;;0.80;0.80;;;4.50;99.90;;;;;;5073408;28;20193;-68
2023/05/20 01:34:22;;;;;;;0.70;0.70;;;4.50;99.90;;;;;;5072800;28;20683;-68
2023/05/20 01:36:48;;;;;;;0.80;0.80;;;4.50;99.90;;;;;;5073205;28;20670;-68
2023/05/20 01:39:14;;;;;;;0.80;0.80;;;4.50;99.90;;;;;;5073187;28;20204;-68
2023/05/20 01:41:40;;;;;;;0.75;0.75;;;4.50;99.90;;;;;;5072975;28;20200;-68
2023/05/20 01:44:06;;;;;;;0.80;0.80;;;4.50;99.90;;;;;;5072901;28;20656;-68
2023/05/20 01:46:33;;;;;;;0.80;0.80;;;4.50;99.90;;;;;;5072947;28;20201;-69
2023/05/20 01:48:59;;;;;;;0.70;0.70;;;4.40;99.90;;;;;;5072896;28;20200;-68
2023/05/20 01:51:25;;;;;;;0.70;0.70;;;4.40;99.90;;;;;;5072820;28;20346;-68
2023/05/20 01:53:51;;;;;;;0.70;0.70;;;4.40;99.90;;;;;;5073088;28;20688;-68
2023/05/20 01:56:16;;;;;;;0.90;0.90;;;4.40;99.90;;;;;;5087191;28;20196;-68
2023/05/20 01:58:42;;;;;;;0.80;0.80;;;4.30;99.90;;;;;;5093039;28;20214;-69
2023/05/20 02:01:08;;;;;;;0.80;0.80;;;4.30;99.90;;;;;;5083142;28;20196;-67
2023/05/20 02:03:34;;;;;;;0.80;0.80;;;4.30;99.90;;;;;;5072314;28;20224;-69
2023/05/20 02:05:59;;;;;;;0.70;0.70;;;4.30;99.90;;;;;;5072906;28;20201;-69
2023/05/20 02:08:25;;;;;;;0.77;0.77;;;4.40;99.90;;;;;;5072086;28;20200;-68
2023/05/20 02:10:51;;;;;;;0.70;0.70;;;4.30;99.90;;;;;;5072803;28;20218;-69
2023/05/20 02:13:16;;;;;;;1.00;1.00;;;4.30;99.90;;;;;;5054729;28;20215;-69
2023/05/20 02:15:42;;;;;;;0.80;0.80;;;4.30;99.90;;;;;;5072436;28;20291;-68
2023/05/20 02:18:08;;;;;;;0.70;0.70;;;4.20;99.90;;;;;;5072633;28;20279;-69
2023/05/20 02:20:37;;;;;;;0.80;0.80;;;4.20;99.90;;;;;;5072394;28;20219;-69
2023/05/20 02:23:04;;;;;;;0.70;0.70;;;4.20;99.90;;;;;;5072633;28;20674;-69
2023/05/20 02:25:31;;;;;;;0.80;0.80;;;4.20;99.90;;;;;;5072484;28;20196;-68
2023/05/20 02:27:57;;;;;;;0.80;0.80;;;4.10;99.90;;;;;;5072477;28;20189;-69
2023/05/20 02:30:22;;;;;;;0.70;0.70;;;4.10;99.90;;;;;;5072400;28;20189;-68
2023/05/20 02:32:48;;;;;;;0.80;0.80;;;4.10;99.90;;;;;;5072499;28;20315;-69
2023/05/20 02:35:15;;;;;;;0.80;0.80;;;4.10;99.90;;;;;;5054342;28;20228;-69
2023/05/20 02:37:43;;;;;;;0.80;0.80;;;4.10;99.90;;;;;;5054298;28;20656;-69
2023/05/20 02:40:09;;;;;;;0.70;0.70;;;4.10;99.90;;;;;;5054501;28;20197;-69
2023/05/20 02:42:35;;;;;;;0.80;0.80;;;4.10;99.90;;;;;;5072257;28;20667;-68
2023/05/20 02:45:01;;;;;;;0.70;0.70;;;4.10;99.90;;;;;;5072119;28;20207;-70
2023/05/20 02:47:26;;;;;;;0.90;0.90;;;4.10;99.90;;;;;;5053925;28;20207;-69
2023/05/20 02:49:52;;;;;;;0.80;0.80;;;4.10;99.90;;;;;;5072207;28;20193;-69
2023/05/20 02:52:18;;;;;;;0.90;0.90;;;4.10;99.90;;;;;;5067075;28;20196;-68
2023/05/20 02:54:44;;;;;;;0.70;0.70;;;4.10;99.90;;;;;;5096580;28;20200;-69
2023/05/20 02:57:09;;;;;;;0.73;0.73;;;4.20;99.90;;;;;;5096146;28;20206;-69
2023/05/20 02:59:35;;;;;;;0.70;0.70;;;4.20;99.90;;;;;;5095896;28;20211;-69
2023/05/20 03:02:02;;;;;;;0.73;0.73;;;4.20;99.90;;;;;;5087108;28;20197;-69
2023/05/20 03:04:27;;;;;;;0.70;0.70;;;4.20;99.90;;;;;;5075045;28;20201;-68
2023/05/20 03:06:56;;;;;;;0.65;0.65;;;4.20;99.90;;;;;;5075839;28;20628;-69
2023/05/20 03:09:23;;;;;;;0.70;0.70;;;4.20;99.90;;;;;;5075555;28;20654;-69
2023/05/20 03:11:49;;;;;;;0.80;0.80;;;4.30;99.90;;;;;;5075902;28;20284;-69
2023/05/20 03:14:15;;;;;;;0.70;0.70;;;4.30;99.90;;;;;;5075728;28;20275;-69
2023/05/20 03:16:41;;;;;;;1.70;1.58;;;4.30;99.90;;;;;;5075473;28;20189;-68
2023/05/20 03:19:07;;;;;;;0.70;0.70;;;4.40;99.90;;;;;;5057699;28;20762;-68
2023/05/20 03:21:33;;;;;;;1.00;1.00;;;4.40;99.90;;;;;;5057211;28;20228;-69
2023/05/20 03:23:58;;;;;;;0.70;0.70;;;4.50;99.90;;;;;;5075422;28;20246;-68
2023/05/20 03:26:24;;;;;;;0.70;0.70;;;4.60;99.90;;;;;;5057290;28;20300;-68
2023/05/20 03:28:50;;;;;;;0.80;0.80;;;4.70;99.90;;;;;;5075375;28;20197;-69
2023/05/20 03:31:16;;;;;;;0.70;0.70;;;4.70;99.90;;;;;;5075178;28;20201;-68
2023/05/20 03:33:42;;;;;;;0.80;0.80;;;4.80;99.90;;;;;;5075097;28;20271;-68
2023/05/20 03:36:08;;;;;;;0.70;0.70;;;4.90;99.90;;;;;;5075290;28;20193;-68
2023/05/20 03:38:33;;;;;;;0.70;0.70;;;5.00;99.90;;;;;;5074738;28;20540;-68
2023/05/20 03:40:59;;;;;;;1.27;1.17;;;5.10;99.90;;;;;;5075166;28;20615;-68
2023/05/20 03:43:26;;;;;;;0.80;0.80;;;5.20;99.90;;;;;;5074548;28;20204;-69
2023/05/20 03:45:51;;;;;;;0.70;0.70;;;5.30;99.90;;;;;;5075259;28;20221;-69
2023/05/20 03:48:17;;;;;;;0.70;0.70;;;5.40;99.90;;;;;;5085232;28;20222;-69
2023/05/20 03:50:43;;;;;;;0.77;0.75;;;5.50;99.90;;;;;;5081318;28;20208;-69
2023/05/20 03:53:08;;;;;;;0.70;0.70;;;5.60;99.90;;;;;;5075116;28;20251;-69
2023/05/20 03:55:34;;;;;;;0.80;0.80;;;5.70;99.90;;;;;;5074694;28;20204;-69
2023/05/20 03:58:00;;;;;;;0.77;0.77;;;5.80;99.90;;;;;;5074628;28;20283;-69
2023/05/20 04:00:26;;;;;;;0.70;0.70;;;5.90;99.90;;;;;;5074600;28;20188;-69
2023/05/20 04:02:52;;;;;;;0.80;0.80;;;6.00;99.90;;;;;;5074238;28;20524;-68
2023/05/20 04:05:18;;;;;;;0.68;0.68;;;6.10;99.90;;;;;;5073564;28;20212;-69
2023/05/20 04:07:44;;;;;;;0.60;0.60;;;6.30;99.90;;;;;;5056642;28;20205;-68
2023/05/20 04:10:10;;;;;;;0.70;0.70;;;6.40;99.90;;;;;;5074641;28;20612;-69
2023/05/20 04:12:37;;;;;;;0.70;0.70;;;6.50;99.90;;;;;;5074405;28;20193;-69
2023/05/20 04:15:03;;;;;;;0.70;0.70;;;6.60;99.90;;;;;;5074360;28;20208;-68
2023/05/20 04:17:29;;;;;;;0.70;0.70;;;6.70;99.90;;;;;;5074197;28;20193;-70
2023/05/20 04:19:57;;;;;;;0.70;0.70;;;6.80;99.90;;;;;;5074521;28;20193;-69
2023/05/20 04:22:22;;;;;;;0.60;0.60;;;7.00;99.90;;;;;;5073879;28;20209;-69
2023/05/20 04:24:49;;;;;;;0.70;0.70;;;7.10;99.90;;;;;;5074104;28;20273;-68
2023/05/20 04:27:15;;;;;;;0.70;0.70;;;7.20;99.90;;;;;;5073681;28;20204;-68
2023/05/20 04:29:46;;;;;;;0.70;0.70;;;7.40;99.90;;;;;;5074078;28;20227;-68
2023/05/20 04:32:17;;;;;;;1.27;1.17;;;7.50;99.90;;;;;;5073862;28;20196;-68
2023/05/20 04:34:44;;;;;;;0.70;0.70;;;7.70;99.90;;;;;;5073673;28;20193;-68
2023/05/20 04:37:10;;;;;;;1.13;1.02;;;7.90;99.90;;;;;;5073547;28;20193;-69
2023/05/20 04:39:36;;;;;;;0.70;0.70;;;8.00;99.90;;;;;;5073486;28;20216;-68
2023/05/20 04:42:02;;;;;;;0.70;0.70;;;8.10;99.90;;;;;;5073413;28;20671;-68
2023/05/20 04:44:28;;;;;;;0.80;0.77;;;8.20;99.90;;;;;;5082679;28;20243;-69
2023/05/20 04:46:56;;;;;;;0.70;0.70;;;8.30;99.90;;;;;;5075535;28;20196;-68
2023/05/20 04:49:24;;;;;;;0.80;0.80;;;8.40;99.90;;;;;;5093516;28;20188;-69
2023/05/20 04:51:51;;;;;;;0.60;0.60;;;8.50;99.90;;;;;;5084783;28;20640;-68
2023/05/20 04:54:17;;;;;;;0.60;0.60;;;8.70;99.90;;;;;;5073379;28;20588;-69
2023/05/20 04:56:43;;;;;;;0.60;0.60;;;8.80;99.90;;;;;;5073146;28;20267;-68
2023/05/20 04:59:09;;;;;;;0.63;0.63;;;8.90;99.90;;;;;;5073294;28;20663;-69
2023/05/20 05:01:35;;;;;;;0.82;0.82;;;9.10;99.90;;;;;;5072958;28;20216;-69
2023/05/20 05:04:02;;;;;;;0.60;0.60;;;9.20;99.90;;;;;;5073001;28;20267;-69
2023/05/20 05:06:28;;;;;;;0.68;0.68;;;9.40;99.90;;;;;;5072911;28;20209;-69
2023/05/20 05:08:54;;;;;;;0.70;0.70;;;9.50;99.90;;;;;;5073114;28;20193;-69
2023/05/20 05:11:20;;;;;;;0.60;0.60;;;9.60;99.90;;;;;;5072910;28;20196;-70
2023/05/20 05:13:46;;;;;;;0.73;0.73;;;9.80;99.90;;;;;;5073060;28;20196;-69
2023/05/20 05:16:12;;;;;;;0.82;0.80;;;9.90;99.90;;;;;;5072688;28;20185;-69
2023/05/20 05:18:37;;;;;;;0.60;0.60;;;10.10;99.90;;;;;;5072722;28;20671;-69
2023/05/20 05:21:04;;;;;;;0.50;0.50;;;10.30;99.90;;;;;;5072756;28;20307;-69
2023/05/20 05:23:30;;;;;;;0.60;0.60;;;10.40;99.90;;;;;;5072498;28;20204;-69
2023/05/20 05:25:56;;;;;;;0.77;0.77;;;10.60;99.90;;;;;;5072812;28;20205;-70
2023/05/20 05:28:22;;;;;;;0.50;0.50;;;10.80;99.90;;;;;;5072561;28;20268;-69
2023/05/20 05:30:48;;;;;;;0.70;0.70;;;10.90;99.90;;;;;;5072798;28;20663;-69
2023/05/20 05:33:14;;;;;;;0.47;0.47;;;11.00;99.90;;;;;;5072769;28;20192;-69
2023/05/20 05:35:43;;;;;;;0.60;0.60;;;11.10;99.90;;;;;;5072439;28;20290;-69
2023/05/20 05:38:09;;;;;;;0.73;0.73;;;11.30;99.90;;;;;;5053720;28;20204;-69
2023/05/20 05:40:35;;;;;;;0.60;0.60;;;11.50;99.90;;;;;;5069420;28;20200;-69
2023/05/20 05:43:01;;;;;;;0.70;0.70;;;11.60;99.90;;;;;;5067236;28;20225;-69
2023/05/20 05:45:26;;;;;;;0.55;0.55;;;11.70;99.90;;;;;;5070219;28;20247;-69
2023/05/20 05:47:53;;;;;;;0.70;0.70;;;11.80;99.90;;;;;;5072484;28;20714;-69
2023/05/20 05:50:18;;;;;;;0.95;0.90;;;11.90;99.90;;;;;;5072558;28;20231;-70
2023/05/20 05:52:44;;;;;;;0.52;0.52;;;12.10;99.90;;;;;;5072570;28;20229;-70
2023/05/20 05:55:10;;;;;;;1.10;1.10;;;12.20;99.90;;;;;;5072612;28;20193;-70
2023/05/20 05:57:36;;;;;;;0.70;0.70;;;12.50;99.90;;;;;;5072382;28;20220;-70
2023/05/20 06:00:03;;;;;;;0.55;0.55;;;12.70;99.90;;;;;;5072771;28;20235;-70
2023/05/20 06:02:29;;;;;;;0.80;0.75;;;12.90;99.90;;;;;;5072073;28;20583;-70
2023/05/20 06:04:55;;;;;;;1.17;1.08;;;13.10;99.90;;;;;;5072489;28;20208;-70
2023/05/20 06:07:22;;;;;;;0.60;0.60;;;13.30;99.90;;;;;;5072148;28;20200;-70
2023/05/20 06:09:47;;;;;;;0.65;0.65;;;13.60;99.90;;;;;;5072510;28;20189;-70
2023/05/20 06:12:13;;;;;;;0.90;0.90;;;13.70;99.90;;;;;;5072603;28;20200;-70
2023/05/20 06:14:39;;;;;;;3.13;1.13;;;13.90;99.90;;;;;;5072531;28;20201;-70
2023/05/20 06:17:04;;;;;;;0.68;0.68;;;14.10;99.90;;;;;;5072447;28;20188;-71
2023/05/20 06:19:30;;;;;;;0.88;0.88;;;14.30;99.90;;;;;;5071955;28;20196;-70
2023/05/20 06:21:57;;;;;;;0.63;0.63;;;14.50;99.90;;;;;;5072546;28;20208;-70
2023/05/20 06:24:23;;;;;;;1.27;1.13;;;14.70;99.90;;;;;;5072472;28;20203;-70
2023/05/20 06:26:49;;;;;;;1.15;1.05;;;15.00;99.90;;;;;;5072927;28;20184;-70
2023/05/20 06:29:15;;;;;;;1.00;0.95;;;15.10;99.90;;;;;;5076549;28;20220;-70
2023/05/20 06:31:41;;;;;;;2.65;1.33;;;15.30;99.90;;;;;;5076379;28;20216;-70
2023/05/20 06:34:07;;;;;;;0.73;0.52;;;15.50;99.90;;;;;;5076491;28;20279;-71
2023/05/20 06:36:32;;;;;;;0.93;0.93;;;15.60;99.90;;;;;;5082459;28;20210;-71
2023/05/20 06:38:59;;;;;;;0.73;0.73;;;15.70;99.90;;;;;;5097100;28;20258;-71
2023/05/20 06:41:25;;;;;;;0.75;0.75;;;15.90;99.90;;;;;;5096556;28;20639;-69
2023/05/20 06:43:51;;;;;;;1.38;1.17;;;16.20;99.90;;;;;;5091062;28;20193;-70
2023/05/20 06:46:16;;;;;;;0.60;0.60;;;16.50;99.90;;;;;;5076312;28;20212;-69
2023/05/20 06:48:42;;;;;;;1.10;0.95;;;16.70;99.90;;;;;;5076010;28;20295;-71
2023/05/20 06:51:08;;;;;;;0.45;0.45;;;16.70;99.90;;;;;;5076100;28;20204;-72
2023/05/20 06:53:34;;;;;;;0.50;0.50;;;16.70;99.90;;;;;;5075891;28;20185;-75
2023/05/20 06:56:00;;;;;;;1.67;1.20;;;16.80;99.90;;;;;;5075932;28;20280;-72
2023/05/20 06:58:28;;;;;;;0.93;0.57;;;17.20;99.90;;;;;;5075378;28;20279;-72
2023/05/20 07:00:53;;;;;;;0.50;0.50;;;17.40;99.90;;;;;;5075929;28;20567;-72
2023/05/20 07:03:19;;;;;;;0.50;0.50;;;17.20;99.90;;;;;;5075439;28;20225;-71
2023/05/20 07:05:45;;;;;;;1.55;0.80;;;17.30;99.90;;;;;;5076007;28;20208;-72
2023/05/20 07:08:11;;;;;;;1.83;1.33;;;17.40;99.90;;;;;;5075626;28;20539;-71
2023/05/20 07:10:36;;;;;;;1.10;0.75;;;17.50;99.90;;;;;;5075618;28;20189;-72
2023/05/20 07:13:02;;;;;;;1.15;0.85;;;17.90;99.90;;;;;;5075498;28;20193;-72
2023/05/20 07:15:28;;;;;;;0.60;0.60;;;18.10;99.90;;;;;;5075400;28;20185;-71
2023/05/20 07:17:54;;;;;;;1.13;1.02;;;18.30;99.90;;;;;;5075686;28;20678;-71
2023/05/20 07:20:20;;;;;;;0.70;0.70;;;18.40;99.90;;;;;;5075597;28;20200;-69
2023/05/20 07:22:47;;;;;;;1.95;0.82;;;18.50;99.90;;;;;;5075467;28;20699;-71
2023/05/20 07:25:13;;;;;;;0.80;0.80;;;18.60;99.90;;;;;;5075437;28;20193;-71
2023/05/20 07:27:39;;;;;;;0.98;0.82;;;19.00;99.90;;;;;;5075776;28;20189;-72
2023/05/20 07:30:05;;;;;;;1.77;0.93;;;19.10;99.90;;;;;;5057784;28;20203;-71
2023/05/20 07:32:31;;;;;;;0.85;0.55;;;19.60;99.90;;;;;;5079219;28;20291;-70
2023/05/20 07:34:57;;;;;;;0.77;0.75;;;19.50;99.90;;;;;;5088276;28;20633;-71
2023/05/20 07:37:22;;;;;;;1.65;1.02;;;19.40;99.90;;;;;;5074671;28;20239;-71
2023/05/20 07:39:48;;;;;;;1.65;1.27;;;19.50;99.90;;;;;;5075394;28;20193;-71
2023/05/20 07:42:14;;;;;;;0.60;0.60;;;19.70;99.90;;;;;;5075506;28;20199;-71
2023/05/20 07:44:40;;;;;;;3.17;1.20;;;19.70;99.90;;;;;;5056947;28;20667;-71
2023/05/20 07:47:05;;;;;;;0.68;0.68;;;19.40;99.90;;;;;;5057203;28;20204;-72
2023/05/20 07:49:31;;;;;;;0.70;0.63;;;19.30;99.90;;;;;;5057329;28;20209;-71
2023/05/20 07:51:57;;;;;;;0.50;0.50;;;19.20;99.90;;;;;;5075241;28;20250;-72
2023/05/20 07:54:23;;;;;;;0.45;0.45;;;19.50;99.90;;;;;;5075082;28;20189;-72
2023/05/20 07:56:48;;;;;;;0.63;0.57;;;19.70;99.90;;;;;;5075296;28;20270;-72
2023/05/20 07:59:14;;;;;;;0.38;0.38;;;19.70;99.90;;;;;;5075002;28;20236;-71
2023/05/20 08:01:43;;;;;;;0.57;0.57;;;19.70;99.90;;;;;;5074614;28;20193;-72
2023/05/20 08:04:08;;;;;;;1.08;0.88;;;20.00;99.90;;;;;;5075135;28;20224;-72
2023/05/20 08:06:34;;;;;;;2.20;1.05;;;20.20;99.90;;;;;;5074704;28;20216;-72
2023/05/20 08:09:01;;;;;;;0.82;0.77;;;20.40;99.90;;;;;;5075024;28;20189;-71
2023/05/20 08:11:27;;;;;;;0.70;0.70;;;20.80;99.90;;;;;;5074694;28;20553;-72
2023/05/20 08:13:53;;;;;;;0.70;0.70;;;20.90;99.90;;;;;;5074946;28;20193;-71
2023/05/20 08:16:20;;;;;;;1.27;0.75;;;21.10;99.90;;;;;;5074107;28;20644;-72
2023/05/20 08:18:46;;;;;;;0.73;0.65;;;21.00;99.90;;;;;;5074799;28;20199;-72
2023/05/20 08:21:12;;;;;;;0.43;0.43;;;21.20;99.90;;;;;;5074718;28;20201;-71
2023/05/20 08:23:38;;;;;;;0.60;0.60;;;21.60;99.90;;;;;;5074488;28;20664;-71
2023/05/20 08:26:04;;;;;;;1.10;0.73;;;21.70;99.90;;;;;;5062221;28;20212;-71
2023/05/20 08:28:30;;;;;;;0.88;0.73;;;21.40;99.90;;;;;;5057526;28;20281;-71
2023/05/20 08:30:59;;;;;;;0.73;0.73;;;21.60;99.90;;;;;;5094521;28;20188;-71
2023/05/20 08:33:24;;;;;;;0.52;0.52;;;21.80;99.90;;;;;;5094445;28;20196;-71
2023/05/20 08:35:50;;;;;;;0.52;0.52;;;21.80;99.90;;;;;;5094691;28;20275;-70
2023/05/20 08:38:16;;;;;;;0.35;0.35;;;21.50;99.90;;;;;;5094557;28;20249;-72
2023/05/20 08:40:42;;;;;;;0.52;0.52;;;21.70;99.90;;;;;;5094465;28;20330;-70
2023/05/20 08:43:08;;;;;;;0.43;0.43;;;21.70;99.90;;;;;;5094427;28;20192;-69
2023/05/20 08:45:37;;;;;;;0.63;0.52;;;21.80;99.90;;;;;;5074354;28;20615;-70
2023/05/20 08:48:06;;;;;;;1.10;0.82;;;22.10;99.90;;;;;;5056038;28;20207;-70
2023/05/20 08:50:32;;;;;;;0.50;0.50;;;22.30;99.90;;;;;;5073254;28;20668;-70
2023/05/20 08:52:58;;;;;;;1.05;0.60;;;22.70;99.90;;;;;;5073701;28;20611;-70
2023/05/20 08:55:35;;;;;;;0.68;0.68;;;22.90;99.00;;;;;;5073304;28;20659;-71
2023/05/20 08:58:02;;;;;;;0.60;0.60;;;23.10;98.10;;;;;;5073551;28;20188;-70
2023/05/20 09:00:28;;;;;;;0.55;0.50;;;22.80;96.80;;;;;;5073163;28;20201;-70
2023/05/20 09:02:55;;;;;;;1.98;0.60;;;23.00;96.80;;;;;;5073120;28;20297;-69
2023/05/20 09:05:21;;;;;;;3.85;1.00;;;23.30;96.60;;;;;;5073497;28;20671;-71
2023/05/20 09:07:48;;;;;;;0.43;0.40;;;23.60;96.10;;;;;;5073521;28;20592;-69
2023/05/20 09:10:14;;;;;;;3.40;0.85;;;23.70;96.40;;;;;;5073675;28;20312;-69
2023/05/20 09:12:40;;;;;;;1.40;0.73;;;23.70;94.90;;;;;;5073517;28;20271;-69
2023/05/20 09:15:06;;;;;;;1.42;0.82;;;23.60;93.60;;;;;;5073387;28;20676;-69
2023/05/20 09:17:36;;;;;;;0.43;0.43;;;23.80;93.90;;;;;;5073361;28;20589;-70
2023/05/20 09:20:07;;;;;;;2.60;0.60;;;23.60;93.00;;;;;;5073604;28;20219;-70
2023/05/20 09:22:33;;;;;;;0.40;0.40;;;23.70;95.40;;;;;;5073124;28;20767;-70
2023/05/20 09:24:58;;;;;;;0.57;0.57;;;24.10;93.00;;;;;;5076918;28;20282;-71
2023/05/20 09:27:24;;;;;;;0.55;0.47;;;24.70;91.50;;;;;;5093360;28;20188;-70
2023/05/20 09:29:50;;;;;;;0.45;0.45;;;24.70;90.10;;;;;;5093657;28;20276;-71
2023/05/20 09:32:19;;;;;;;0.50;0.50;;;24.90;91.60;;;;;;5093562;28;20188;-70
2023/05/20 09:34:46;;;;;;;0.93;0.90;;;24.40;89.50;;;;;;5075740;28;20192;-71
2023/05/20 09:37:16;;;;;;;0.55;0.43;;;24.40;91.30;;;;;;5093279;28;20188;-70
2023/05/20 09:39:59;;;;;;;1.25;0.98;;;24.50;90.90;;;;;;5093375;28;20185;-71
2023/05/20 09:42:27;;;;;;;1.33;1.02;;;24.80;87.90;;;;;;5093118;28;20188;-70
2023/05/20 09:44:55;;;;;;;0.38;0.38;;;24.80;91.20;;;;;;5079198;28;20235;-70
2023/05/20 09:47:23;;;;;;;0.30;0.30;;;24.90;89.50;;;;;;5072870;28;20185;-70
2023/05/20 09:49:51;;;;;;;0.40;0.40;;;25.10;90.50;;;;;;5072633;28;20184;-71
2023/05/20 09:52:17;;;;;;;1.45;0.77;;;25.50;91.10;;;;;;5072890;28;20185;-70
2023/05/20 09:54:44;;;;;;;0.77;0.77;;;25.10;85.70;;;;;;5072954;28;20204;-71
2023/05/20 09:57:11;;;;;;;1.27;0.65;;;25.70;88.80;;;;;;5073048;28;20191;-71
2023/05/20 09:59:37;;;;;;;0.28;0.28;;;26.20;84.30;;;;;;5054814;28;20538;-70
2023/05/20 10:02:05;;;;;;;0.30;0.30;;;26.10;84.70;;;;;;5071727;28;20286;-70
2023/05/20 10:04:34;;;;;;;0.63;0.57;;;26.30;83.10;;;;;;5072550;28;20189;-70
2023/05/20 10:07:21;;;;;;;0.30;0.30;;;26.30;83.60;;;;;;5073038;28;20194;-70
2023/05/20 10:10:13;;;;;;;0.38;0.38;;;25.90;88.20;;;;;;5072904;28;20193;-70
2023/05/20 10:13:03;;;;;;;1.33;0.60;;;26.20;83.40;;;;;;5072751;28;20195;-70
2023/05/20 10:15:40;;;;;;;3.65;0.85;;;26.30;87.50;;;;;;5072663;28;20797;-71
2023/05/20 10:18:28;;;;;;;0.50;0.40;;;26.30;81.60;;;;;;5064642;28;20207;-70
2023/05/20 10:20:54;;;;;;;1.17;0.32;;;26.10;83.70;;;;;;5053641;28;20208;-70
2023/05/20 10:23:26;;;;;;;0.55;0.55;;;26.40;81.90;;;;;;5089015;28;20200;-70
2023/05/20 10:25:54;;;;;;;1.60;0.77;;;26.50;86.70;;;;;;5072649;28;20208;-70
2023/05/20 10:28:31;;;;;;;0.47;0.40;;;26.70;81.30;;;;;;5072636;28;20276;-71
2023/05/20 10:30:58;;;;;;;0.68;0.45;;;26.50;80.90;;;;;;5072610;28;20192;-70
2023/05/20 10:33:26;;;;;;;1.83;0.63;;;26.40;81.60;;;;;;5072538;28;20284;-71
2023/05/20 10:35:54;;;;;;;0.63;0.63;;;26.50;84.10;;;;;;5072726;28;20192;-71
2023/05/20 10:38:20;;;;;;;0.20;0.20;;;26.80;84.90;;;;;;5072657;28;20192;-71
2023/05/20 10:40:46;;;;;;;0.40;0.40;;;27.10;82.00;;;;;;5072511;28;20203;-71
2023/05/20 10:43:24;;;;;;;0.25;0.25;;;26.70;79.60;;;;;;5072787;28;20216;-71
2023/05/20 10:45:55;;;;;;;0.30;0.30;;;27.00;83.50;;;;;;5034633;28;20213;-71
2023/05/20 10:48:24;;;;;;;0.77;0.63;;;27.20;78.80;;;;;;5052433;28;20188;-70
2023/05/20 10:50:52;;;;;;;0.20;0.20;;;27.60;79.30;;;;;;5052503;28;20251;-70
2023/05/20 10:53:22;;;;;;;1.00;0.40;;;27.90;81.00;;;;;;5052363;28;20272;-72
2023/05/20 10:55:50;;;;;;;0.63;0.50;;;28.60;80.50;;;;;;5052568;28;20566;-73
2023/05/20 10:58:17;;;;;;;0.38;0.38;;;28.60;75.00;;;;;;5052466;28;20652;-69
2023/05/20 11:00:44;;;;;;;1.95;0.68;;;28.50;73.00;;;;;;5056313;28;20188;-73
2023/05/20 11:03:11;;;;;;;0.40;0.40;;;27.90;73.30;;;;;;5072228;28;20228;-72
2023/05/20 11:05:39;;;;;;;0.30;0.30;;;27.70;73.60;;;;;;5072340;28;20204;-70
2023/05/20 11:08:08;;;;;;;0.43;0.43;;;27.40;78.50;;;;;;5072407;28;20196;-71
2023/05/20 11:10:35;;;;;;;0.30;0.30;;;26.30;76.00;;;;;;5072232;28;20275;-70
2023/05/20 11:13:02;;;;;;;0.50;0.50;;;25.40;78.30;;;;;;5072604;28;20189;-70
2023/05/20 11:15:30;;;;;;;0.60;0.60;;;24.90;80.00;;;;;;5057624;28;20193;-71
2023/05/20 11:18:00;;;;;;;0.85;0.63;;;25.30;79.30;;;;;;5070411;28;20701;-71
2023/05/20 11:20:26;;;;;;;0.35;0.35;;;26.20;80.60;;;;;;5084722;28;20266;-71
2023/05/20 11:22:53;;;;;;;0.50;0.50;;;27.30;79.90;;;;;;5075793;28;20203;-71
2023/05/20 11:25:19;;;;;;;1.77;0.30;;;27.30;76.50;;;;;;5075570;28;20192;-71
2023/05/20 11:27:46;;;;;;;0.55;0.50;;;27.10;73.10;;;;;;5057938;28;20188;-71
2023/05/20 11:30:17;;;;;;;1.85;1.15;;;27.00;73.40;;;;;;5075794;28;20238;-70
2023/05/20 11:33:02;;;;;;;1.30;0.43;;;26.30;73.90;;;;;;5057351;28;20197;-71
2023/05/20 11:35:31;;;;;;;0.70;0.60;;;25.80;76.90;;;;;;5075329;28;20238;-71
2023/05/20 11:38:09;;;;;;;3.30;0.73;;;26.00;74.10;;;;;;5075481;28;20220;-71
2023/05/20 11:40:35;;;;;;;0.20;0.20;;;26.30;74.30;;;;;;5075079;28;20678;-71
2023/05/20 11:43:02;;;;;;;0.43;0.40;;;27.00;75.30;;;;;;5075552;28;20276;-71
2023/05/20 11:45:42;;;;;;;1.27;0.80;;;27.60;74.00;;;;;;5074544;28;20204;-71
2023/05/20 11:48:08;;;;;;;0.73;0.63;;;28.10;71.40;;;;;;5075399;28;20230;-71
2023/05/20 11:50:43;;;;;;;1.65;0.57;;;28.30;72.30;;;;;;5075068;28;20189;-71
2023/05/20 11:53:18;;;;;;;0.40;0.40;;;28.50;72.70;;;;;;5075140;28;20558;-72
2023/05/20 11:55:53;;;;;;;0.68;0.63;;;27.90;70.20;;;;;;5075114;28;20769;-71
2023/05/20 11:58:27;;;;;;;0.70;0.60;;;28.00;73.20;;;;;;5074702;28;20196;-72
2023/05/20 12:00:53;;;;;;;0.65;0.55;;;27.30;69.50;;;;;;5074889;28;20188;-71
2023/05/20 12:03:19;;;;;;;0.68;0.68;;;26.30;71.20;;;;;;5074456;28;20235;-72
2023/05/20 12:05:47;;;;;;;0.95;0.70;;;26.80;69.80;;;;;;5074788;28;20223;-71
2023/05/20 12:08:13;;;;;;;1.35;0.90;;;26.90;71.30;;;;;;5074886;28;20195;-71
2023/05/20 12:10:39;;;;;;;0.25;0.25;;;26.80;69.50;;;;;;5048064;28;20668;-71
2023/05/20 12:13:07;;;;;;;0.50;0.50;;;27.00;70.70;;;;;;5054717;28;20200;-70
2023/05/20 12:15:39;;;;;;;2.03;0.32;;;27.20;72.80;;;;;;5089640;28;20203;-71
2023/05/20 12:18:05;;;;;;;0.45;0.38;;;27.70;71.10;;;;;;5056772;28;20295;-71
2023/05/20 12:20:33;;;;;;;0.20;0.20;;;27.90;69.80;;;;;;5074489;28;20224;-71
2023/05/20 12:22:59;;;;;;;0.52;0.43;;;27.90;67.60;;;;;;5074061;28;20184;-71
2023/05/20 12:25:25;;;;;;;1.02;0.52;;;28.00;70.50;;;;;;5073368;28;20242;-71
2023/05/20 12:27:51;;;;;;;0.30;0.30;;;27.70;71.00;;;;;;5074625;28;20189;-71
2023/05/20 12:30:21;;;;;;;1.70;0.85;;;28.40;67.60;;;;;;5074336;28;20554;-70
2023/05/20 12:32:52;;;;;;;1.30;0.80;;;28.20;66.60;;;;;;5074151;28;20712;-71
2023/05/20 12:35:25;;;;;;;0.70;0.40;;;28.00;66.60;;;;;;5074271;28;20284;-71
2023/05/20 12:37:51;;;;;;;1.17;0.43;;;27.70;67.50;;;;;;5074438;28;20204;-71
2023/05/20 12:40:17;;;;;;;0.38;0.38;;;26.70;66.20;;;;;;5074133;28;20197;-72
2023/05/20 12:42:44;;;;;;;0.50;0.50;;;26.80;70.10;;;;;;5073970;28;20318;-71
2023/05/20 12:45:09;;;;;;;0.93;0.80;;;27.50;66.50;;;;;;5074090;28;20227;-72
2023/05/20 12:47:36;;;;;;;0.30;0.30;;;27.70;66.40;;;;;;5073939;28;20270;-71
2023/05/20 12:50:02;;;;;;;0.55;0.50;;;27.70;67.90;;;;;;5074139;28;20192;-72